Time;durP1;ratioP1;P1;durP2;ratioP2;P2;SDS_P1;SDS_P2;PMS_P1;PMS_P2;Temp;Humidity;BMP_temperature;BMP_pressure;BME280_temperature;BME280_humidity;BME280_pressure;Samples;Min_cycle;Max_cycle;Signal;HPM_P1;HPM_P2
2021/08/23 00:03:21;;;;;;;2.37;2.03;;;;;;;;;;10510247;28;20066;-91
2021/08/23 00:08:22;;;;;;;2.20;1.80;;;;;;;;;;10505773;28;20463;-91
2021/08/23 00:13:23;;;;;;;2.70;2.13;;;;;;;;;;10509981;28;20128;-92
2021/08/23 00:18:23;;;;;;;2.85;2.10;;;;;;;;;;10526507;28;20020;-91
2021/08/23 00:23:28;;;;;;;3.17;2.10;;;;;;;;;;10509519;28;20131;-92
2021/08/23 00:28:28;;;;;;;3.08;2.10;;;;;;;;;;10509785;28;20027;-91
2021/08/23 00:33:29;;;;;;;2.35;1.70;;;;;;;;;;10496516;28;20028;-90
2021/08/23 00:38:29;;;;;;;3.13;2.03;;;;;;;;;;10509227;28;20035;-90
2021/08/23 00:43:31;;;;;;;2.67;1.98;;;;;;;;;;10507054;28;20461;-90
2021/08/23 00:48:32;;;;;;;2.20;2.00;;;;;;;;;;10507820;28;20027;-89
2021/08/23 00:53:33;;;;;;;3.22;2.00;;;;;;;;;;10507884;28;20046;-90
2021/08/23 00:58:33;;;;;;;1.95;1.73;;;;;;;;;;10524297;28;20028;-89
2021/08/23 01:03:51;;;;;;;2.08;1.88;;;;;;;;;;10507924;28;20051;-90
2021/08/23 01:08:53;;;;;;;3.00;1.90;;;;;;;;;;10524449;28;20015;-89
2021/08/23 01:13:54;;;;;;;2.20;1.90;;;;;;;;;;10524300;28;20051;-91
2021/08/23 01:18:54;;;;;;;1.75;1.65;;;;;;;;;;10507700;28;20071;-91
2021/08/23 01:23:56;;;;;;;2.95;1.73;;;;;;;;;;10524629;28;20020;-91
2021/08/23 01:29:16;;;;;;;2.13;1.92;;;;;;;;;;10506785;28;20027;-90
2021/08/23 01:34:17;;;;;;;2.65;1.90;;;;;;;;;;10541184;28;20016;-88
2021/08/23 01:39:21;;;;;;;3.30;1.73;;;;;;;;;;10506422;28;20020;-90
2021/08/23 01:44:22;;;;;;;2.20;2.00;;;;;;;;;;10506409;28;20414;-90
2021/08/23 01:49:22;;;;;;;2.13;1.90;;;;;;;;;;10505810;28;20024;-89
2021/08/23 01:54:22;;;;;;;2.25;1.83;;;;;;;;;;10505807;28;20468;-89
2021/08/23 01:59:24;;;;;;;1.98;1.77;;;;;;;;;;10522461;28;20027;-90
2021/08/23 02:04:24;;;;;;;1.42;1.33;;;;;;;;;;10522353;28;20055;-90
2021/08/23 02:09:25;;;;;;;2.63;1.73;;;;;;;;;;10505101;28;20052;-90
2021/08/23 02:14:25;;;;;;;2.30;1.90;;;;;;;;;;10538136;28;20020;-92
2021/08/23 02:19:26;;;;;;;2.33;1.88;;;;;;;;;;10513781;28;20488;-91
2021/08/23 02:24:28;;;;;;;2.85;1.70;;;;;;;;;;10455760;28;20048;-90
2021/08/23 02:29:29;;;;;;;1.92;1.60;;;;;;;;;;10463560;28;20048;-91
2021/08/23 02:34:29;;;;;;;1.65;1.55;;;;;;;;;;10480334;28;20047;-91
2021/08/23 02:39:30;;;;;;;2.17;1.90;;;;;;;;;;10494340;28;20029;-92
2021/08/23 02:44:30;;;;;;;1.77;1.67;;;;;;;;;;10463439;28;20457;-91
2021/08/23 02:49:30;;;;;;;1.50;1.40;;;;;;;;;;10462894;28;21119;-91
2021/08/23 02:54:31;;;;;;;2.30;1.50;;;;;;;;;;10465805;28;20426;-91
2021/08/23 02:59:31;;;;;;;1.58;1.48;;;;;;;;;;10480232;28;20464;-91
2021/08/23 03:04:35;;;;;;;1.55;1.45;;;;;;;;;;10462789;28;20105;-92
2021/08/23 03:09:36;;;;;;;2.03;1.77;;;;;;;;;;10486947;28;20028;-92
2021/08/23 03:14:36;;;;;;;2.00;1.60;;;;;;;;;;10470543;28;20028;-91
2021/08/23 03:19:37;;;;;;;1.65;1.55;;;;;;;;;;10504459;28;20039;-90
2021/08/23 03:24:37;;;;;;;1.63;1.52;;;;;;;;;;10504132;28;20024;-91
2021/08/23 03:29:38;;;;;;;1.37;1.23;;;;;;;;;;10501169;28;20028;-92
2021/08/23 03:34:38;;;;;;;2.10;1.55;;;;;;;;;;10470217;28;20457;-91
2021/08/23 03:39:39;;;;;;;1.50;1.40;;;;;;;;;;10469798;28;20020;-90
2021/08/23 03:44:39;;;;;;;1.65;1.40;;;;;;;;;;10485855;28;20028;-90
2021/08/23 03:49:40;;;;;;;1.70;1.52;;;;;;;;;;10463176;28;20038;-91
2021/08/23 03:54:40;;;;;;;1.50;1.40;;;;;;;;;;10485190;28;20154;-90
2021/08/23 03:59:41;;;;;;;2.88;1.55;;;;;;;;;;10503095;28;20909;-91
2021/08/23 04:04:42;;;;;;;2.03;1.38;;;;;;;;;;10503483;28;20031;-91
2021/08/23 04:09:42;;;;;;;1.73;1.20;;;;;;;;;;10468864;28;20030;-91
2021/08/23 04:14:43;;;;;;;1.70;1.60;;;;;;;;;;10468758;28;20453;-91
2021/08/23 04:19:43;;;;;;;1.38;1.27;;;;;;;;;;10468357;28;21032;-93
2021/08/23 04:24:44;;;;;;;1.50;1.40;;;;;;;;;;10468924;28;20051;-92
2021/08/23 04:29:44;;;;;;;1.35;1.25;;;;;;;;;;10469108;28;20050;-90
2021/08/23 04:34:44;;;;;;;1.40;1.30;;;;;;;;;;10464607;28;20115;-91
2021/08/23 04:39:47;;;;;;;1.70;1.60;;;;;;;;;;10480269;28;20437;-91
2021/08/23 04:44:47;;;;;;;1.60;1.50;;;;;;;;;;10466982;28;20024;-90
2021/08/23 04:49:47;;;;;;;2.10;1.93;;;;;;;;;;10462552;28;20096;-90
2021/08/23 04:54:48;;;;;;;2.33;2.10;;;;;;;;;;10482678;28;20870;-91
2021/08/23 04:59:48;;;;;;;2.67;2.13;;;;;;;;;;10466299;28;20020;-91
2021/08/23 05:04:49;;;;;;;2.23;2.03;;;;;;;;;;10466496;28;20028;-91
2021/08/23 05:09:49;;;;;;;2.42;2.22;;;;;;;;;;10465764;28;20023;-91
2021/08/23 05:14:51;;;;;;;4.57;2.25;;;;;;;;;;10465649;28;20107;-91
2021/08/23 05:19:52;;;;;;;2.03;1.92;;;;;;;;;;10482406;28;20036;-92
2021/08/23 05:24:52;;;;;;;2.30;2.10;;;;;;;;;;10452263;28;20032;-92
2021/08/23 05:29:53;;;;;;;2.42;2.15;;;;;;;;;;10479801;28;20028;-92
2021/08/23 05:34:53;;;;;;;2.00;1.90;;;;;;;;;;10465177;28;20082;-93
2021/08/23 05:39:54;;;;;;;2.30;2.20;;;;;;;;;;10464477;28;20469;-93
2021/08/23 05:44:54;;;;;;;2.10;2.00;;;;;;;;;;10466590;28;20120;-92
2021/08/23 05:49:56;;;;;;;2.10;2.00;;;;;;;;;;10465640;28;20023;-92
2021/08/23 05:54:57;;;;;;;2.20;2.05;;;;;;;;;;10465413;28;20043;-92
2021/08/23 05:59:57;;;;;;;2.58;2.33;;;;;;;;;;10459756;28;20031;-92
2021/08/23 06:04:58;;;;;;;2.40;2.20;;;;;;;;;;10459660;28;20465;-93
2021/08/23 06:09:58;;;;;;;2.28;2.08;;;;;;;;;;10465853;28;20103;-92
2021/08/23 06:14:58;;;;;;;2.27;2.07;;;;;;;;;;10465995;28;20414;-92
2021/08/23 06:19:59;;;;;;;2.00;1.90;;;;;;;;;;10460913;28;20497;-91
2021/08/23 06:25:00;;;;;;;4.25;2.10;;;;;;;;;;10475819;28;20111;-92
2021/08/23 06:30:02;;;;;;;2.40;1.98;;;;;;;;;;10466122;28;20021;-92
2021/08/23 06:35:04;;;;;;;5.22;1.90;;;;;;;;;;10464071;28;20461;-92
2021/08/23 06:40:08;;;;;;;3.75;1.90;;;;;;;;;;10480944;28;20025;-91
2021/08/23 06:45:10;;;;;;;5.18;1.98;;;;;;;;;;10474164;28;20396;-93
2021/08/23 06:56:07;;;;;;;2.42;1.35;;;;;;;;;;10508127;28;20052;-95
2021/08/23 07:01:08;;;;;;;10.52;1.95;;;;;;;;;;10489922;28;20025;-93
2021/08/23 07:06:08;;;;;;;2.70;2.25;;;;;;;;;;10474036;28;20389;-94
2021/08/23 07:11:10;;;;;;;3.33;2.40;;;;;;;;;;10472698;28;20028;-94
2021/08/23 07:16:11;;;;;;;7.30;2.88;;;;;;;;;;10472448;28;20027;-95
2021/08/23 07:27:16;;;;;;;5.80;3.13;;;;;;;;;;10502032;28;20044;-89
2021/08/23 07:32:16;;;;;;;4.53;3.00;;;;;;;;;;10486186;28;20040;-89
2021/08/23 07:37:17;;;;;;;5.80;3.10;;;;;;;;;;10497846;28;20028;-89
2021/08/23 07:42:18;;;;;;;5.25;3.58;;;;;;;;;;10466989;23;20072;-90
2021/08/23 07:47:18;;;;;;;7.35;3.67;;;;;;;;;;10404066;28;20505;-90
2021/08/23 07:52:20;;;;;;;5.63;3.90;;;;;;;;;;10451895;28;20029;-89
2021/08/23 07:57:20;;;;;;;7.32;3.83;;;;;;;;;;10420370;28;20083;-91
2021/08/23 08:02:23;;;;;;;6.23;3.13;;;;;;;;;;10421952;28;20025;-94
2021/08/23 08:07:23;;;;;;;4.63;3.53;;;;;;;;;;10383278;28;20463;-96
2021/08/23 08:12:24;;;;;;;5.10;2.77;;;;;;;;;;10388219;28;20398;-96
2021/08/23 08:17:25;;;;;;;4.88;2.63;;;;;;;;;;10386670;28;20036;-94
2021/08/23 08:22:26;;;;;;;2.97;2.22;;;;;;;;;;10390980;28;20024;-93
2021/08/23 08:27:26;;;;;;;2.43;1.80;;;;;;;;;;10412478;28;20025;-94
2021/08/23 08:32:27;;;;;;;5.57;2.20;;;;;;;;;;10389555;28;20143;-91
2021/08/23 08:37:30;;;;;;;3.65;2.13;;;;;;;;;;10422609;28;20474;-93
2021/08/23 08:42:31;;;;;;;6.30;2.30;;;;;;;;;;10381584;28;20049;-90
2021/08/23 08:47:42;;;;;;;9.43;2.28;;;;;;;;;;10382817;28;20124;-91
2021/08/23 08:52:56;;;;;;;2.53;1.88;;;;;;;;;;10424345;28;20057;-95
2021/08/23 08:58:01;;;;;;;5.28;2.20;;;;;;;;;;10388020;28;20099;-91
2021/08/23 09:03:05;;;;;;;7.07;1.75;;;;;;;;;;10417214;28;20116;-95
2021/08/23 09:08:14;;;;;;;3.83;1.75;;;;;;;;;;10409346;28;20382;-93
2021/08/23 09:14:08;;;;;;;11.98;1.90;;;;;;;;;;10396587;28;20044;-94
2021/08/23 09:25:30;;;;;;;3.30;2.00;;;;;;;;;;10243881;29;20035;-95
2021/08/23 09:35:42;;;;;;;6.13;2.10;;;;;;;;;;10628659;23;20453;-91
2021/08/23 09:40:43;;;;;;;4.43;1.58;;;;;;;;;;10343581;28;20041;-93
2021/08/23 09:45:49;;;;;;;3.80;1.58;;;;;;;;;;10311315;28;20053;-94
2021/08/23 09:50:50;;;;;;;2.35;1.98;;;;;;;;;;10306605;28;20021;-92
2021/08/23 09:55:52;;;;;;;4.80;2.17;;;;;;;;;;10276139;28;20303;-92
2021/08/23 10:00:52;;;;;;;6.90;2.42;;;;;;;;;;10285033;28;20204;-91
2021/08/23 10:05:54;;;;;;;6.20;2.70;;;;;;;;;;10285577;28;20050;-90
2021/08/23 10:10:54;;;;;;;7.45;2.97;;;;;;;;;;10286883;28;20037;-93
2021/08/23 10:15:55;;;;;;;2.70;2.20;;;;;;;;;;10337723;28;20489;-88
2021/08/23 10:20:57;;;;;;;5.55;2.33;;;;;;;;;;10288152;28;20531;-89
2021/08/23 10:25:58;;;;;;;3.70;2.10;;;;;;;;;;10273378;28;20022;-88
2021/08/23 10:31:09;;;;;;;2.55;1.85;;;;;;;;;;10272232;28;20496;-89
2021/08/23 10:36:15;;;;;;;3.03;1.73;;;;;;;;;;10272752;28;20119;-89
2021/08/23 10:41:24;;;;;;;1.92;1.20;;;;;;;;;;10306245;28;20397;-89
2021/08/23 10:46:31;;;;;;;;;;;;;;;;;;10259931;28;20033;-88
2021/08/23 10:51:39;;;;;;;1.75;1.40;;;;;;;;;;10286962;28;19925;-88
2021/08/23 10:56:40;;;;;;;1.50;1.40;;;;;;;;;;10290549;28;20037;-89
2021/08/23 11:01:57;;;;;;;1.85;1.33;;;;;;;;;;10279324;28;20149;-92
2021/08/23 11:06:59;;;;;;;1.55;1.20;;;;;;;;;;10273422;28;20533;-91
2021/08/23 11:12:26;;;;;;;1.27;1.17;;;;;;;;;;10280095;28;20034;-92
2021/08/23 11:17:30;;;;;;;4.88;1.20;;;;;;;;;;10301530;28;20434;-93
2021/08/23 11:22:30;;;;;;;1.40;1.30;;;;;;;;;;10265034;28;20549;-93
2021/08/23 11:27:31;;;;;;;1.85;1.38;;;;;;;;;;10298552;28;20787;-93
2021/08/23 11:32:31;;;;;;;2.35;1.20;;;;;;;;;;10346253;28;20038;-93
2021/08/23 11:37:32;;;;;;;1.40;1.30;;;;;;;;;;10357014;28;20026;-94
2021/08/23 11:42:33;;;;;;;1.42;1.33;;;;;;;;;;10347403;28;20026;-92
2021/08/23 11:47:35;;;;;;;1.70;1.33;;;;;;;;;;10337526;28;20466;-92
2021/08/23 11:52:35;;;;;;;1.58;1.45;;;;;;;;;;10343874;28;20040;-92
2021/08/23 11:57:36;;;;;;;3.00;1.80;;;;;;;;;;10347857;28;20041;-92
2021/08/23 12:02:36;;;;;;;1.40;1.30;;;;;;;;;;10347795;28;20442;-92
2021/08/23 12:07:48;;;;;;;2.08;1.55;;;;;;;;;;10346652;28;20110;-92
2021/08/23 12:12:49;;;;;;;1.50;1.40;;;;;;;;;;10364467;28;20030;-92
2021/08/23 12:17:50;;;;;;;2.45;1.55;;;;;;;;;;10364077;28;20477;-92
2021/08/23 12:23:00;;;;;;;1.50;1.40;;;;;;;;;;10379229;28;20112;-92
2021/08/23 12:28:01;;;;;;;1.80;1.23;;;;;;;;;;10370170;28;20180;-91
2021/08/23 12:33:01;;;;;;;2.85;1.33;;;;;;;;;;10347059;28;20188;-92
2021/08/23 12:38:02;;;;;;;1.57;1.40;;;;;;;;;;10362051;28;20064;-93
2021/08/23 12:48:59;;;;;;;1.85;1.35;;;;;;;;;;10341046;28;20507;-96
2021/08/23 12:54:03;;;;;;;1.77;1.42;;;;;;;;;;10326822;28;20046;-96
2021/08/23 12:59:04;;;;;;;2.13;1.33;;;;;;;;;;10318480;28;20038;-95
2021/08/23 13:04:05;;;;;;;1.98;1.40;;;;;;;;;;10307737;28;20077;-96
2021/08/23 13:09:05;;;;;;;1.30;1.20;;;;;;;;;;10306308;28;20065;-96
2021/08/23 13:14:06;;;;;;;4.53;1.17;;;;;;;;;;10307418;28;20113;-96
2021/08/23 13:19:07;;;;;;;4.07;1.45;;;;;;;;;;10306928;28;20371;-95
2021/08/23 13:30:38;;;;;;;4.60;1.33;;;;;;;;;;10282093;28;20106;-94
2021/08/23 13:35:41;;;;;;;6.55;1.20;;;;;;;;;;10262043;28;20046;-95
2021/08/23 13:40:45;;;;;;;1.77;1.25;;;;;;;;;;10250383;28;20040;-94
2021/08/23 13:46:23;;;;;;;5.93;1.30;;;;;;;;;;10238709;29;20035;-94
2021/08/23 13:51:24;;;;;;;1.75;1.10;;;;;;;;;;10237808;28;20039;-94
2021/08/23 13:56:26;;;;;;;6.45;1.60;;;;;;;;;;10260847;28;20028;-94
2021/08/23 14:01:28;;;;;;;6.97;1.50;;;;;;;;;;10262473;28;20043;-91
2021/08/23 14:06:29;;;;;;;1.30;0.90;;;;;;;;;;10288431;28;20038;-91
2021/08/23 14:11:29;;;;;;;3.93;1.03;;;;;;;;;;10359102;28;20022;-89
2021/08/23 14:16:31;;;;;;;1.73;1.00;;;;;;;;;;10331536;28;20699;-91
2021/08/23 14:21:31;;;;;;;1.23;1.13;;;;;;;;;;10311462;28;20332;-89
2021/08/23 14:26:32;;;;;;;2.77;1.23;;;;;;;;;;10315040;28;20049;-89
2021/08/23 14:31:32;;;;;;;1.08;0.90;;;;;;;;;;10291987;28;20034;-89
2021/08/23 14:36:36;;;;;;;7.93;1.13;;;;;;;;;;10342296;28;20580;-94
2021/08/23 14:41:36;;;;;;;2.22;1.00;;;;;;;;;;10299034;28;20144;-91
2021/08/23 14:46:37;;;;;;;1.08;0.95;;;;;;;;;;10291593;28;20026;-90
2021/08/23 14:51:38;;;;;;;1.10;1.00;;;;;;;;;;10310224;28;20046;-90
2021/08/23 14:56:39;;;;;;;2.40;1.10;;;;;;;;;;10294776;28;20115;-90
2021/08/23 15:01:39;;;;;;;3.65;1.00;;;;;;;;;;10322309;28;20026;-90
2021/08/23 15:06:40;;;;;;;1.87;1.00;;;;;;;;;;10286856;28;20030;-90
2021/08/23 15:11:41;;;;;;;3.28;1.00;;;;;;;;;;10300912;28;20478;-92
2021/08/23 15:16:41;;;;;;;4.50;1.20;;;;;;;;;;10306029;28;20352;-90
2021/08/23 15:21:42;;;;;;;4.53;1.17;;;;;;;;;;10325277;28;20030;-90
2021/08/23 15:26:43;;;;;;;1.25;1.00;;;;;;;;;;10349948;28;20655;-92
2021/08/23 15:31:45;;;;;;;1.67;1.00;;;;;;;;;;10329842;28;20389;-92
2021/08/23 15:36:45;;;;;;;6.30;1.27;;;;;;;;;;10332415;28;20052;-91
2021/08/23 15:41:46;;;;;;;3.28;1.30;;;;;;;;;;10302053;28;20039;-91
2021/08/23 15:46:47;;;;;;;1.23;1.10;;;;;;;;;;10294294;28;20426;-91
2021/08/23 15:51:48;;;;;;;1.98;1.20;;;;;;;;;;10283053;28;20132;-90
2021/08/23 15:56:49;;;;;;;1.95;1.30;;;;;;;;;;10302870;28;20033;-90
2021/08/23 16:01:50;;;;;;;3.10;1.10;;;;;;;;;;10311075;28;20037;-91
2021/08/23 16:06:50;;;;;;;1.60;1.00;;;;;;;;;;10307635;28;20493;-91
2021/08/23 16:11:50;;;;;;;1.27;1.07;;;;;;;;;;10303549;28;20135;-90
2021/08/23 16:16:51;;;;;;;1.97;1.37;;;;;;;;;;10281719;28;20490;-90
2021/08/23 16:21:52;;;;;;;1.87;1.20;;;;;;;;;;10280849;28;20025;-91
2021/08/23 16:26:53;;;;;;;1.30;1.20;;;;;;;;;;10283147;28;20530;-91
2021/08/23 16:31:56;;;;;;;2.17;1.10;;;;;;;;;;10296898;28;20155;-90
2021/08/23 16:36:57;;;;;;;1.42;1.20;;;;;;;;;;10293898;28;20058;-89
2021/08/23 16:41:58;;;;;;;4.45;1.30;;;;;;;;;;10274293;28;20033;-89
2021/08/23 16:46:59;;;;;;;4.88;1.17;;;;;;;;;;10295588;28;20489;-90
2021/08/23 16:51:59;;;;;;;3.22;1.48;;;;;;;;;;10347000;28;20068;-90
2021/08/23 16:57:00;;;;;;;1.35;1.20;;;;;;;;;;10304232;28;20437;-91
2021/08/23 17:02:00;;;;;;;1.45;1.02;;;;;;;;;;10299026;28;20614;-91
2021/08/23 17:07:01;;;;;;;2.95;1.02;;;;;;;;;;10313934;28;20405;-91
2021/08/23 17:12:02;;;;;;;5.07;1.60;;;;;;;;;;10360059;28;20034;-96
2021/08/23 17:17:06;;;;;;;2.22;1.00;;;;;;;;;;10360759;28;20471;-96
2021/08/23 17:22:06;;;;;;;3.35;1.00;;;;;;;;;;10394456;28;20022;-96
2021/08/23 17:27:13;;;;;;;4.32;1.70;;;;;;;;;;10384271;28;20025;-96
2021/08/23 17:38:17;;;;;;;1.35;1.20;;;;;;;;;;10348084;28;20045;-92
2021/08/23 17:43:17;;;;;;;2.72;1.40;;;;;;;;;;10298120;28;20124;-91
2021/08/23 17:48:18;;;;;;;1.30;1.13;;;;;;;;;;10294062;28;20121;-91
2021/08/23 17:53:18;;;;;;;1.40;1.30;;;;;;;;;;10299785;28;20447;-92
2021/08/23 17:58:27;;;;;;;10.25;1.73;;;;;;;;;;10330015;28;20443;-96
2021/08/23 18:03:33;;;;;;;6.20;1.30;;;;;;;;;;10377954;28;20076;-95
2021/08/23 18:08:34;;;;;;;6.20;1.25;;;;;;;;;;10368674;28;20110;-96
2021/08/23 18:13:44;;;;;;;4.55;1.20;;;;;;;;;;10399030;28;20018;-96
2021/08/23 18:18:44;;;;;;;3.80;1.40;;;;;;;;;;10249133;29;20047;-95
2021/08/23 18:23:48;;;;;;;3.85;1.40;;;;;;;;;;10254123;29;20064;-96
2021/08/23 18:28:54;;;;;;;4.13;1.90;;;;;;;;;;10255413;29;20036;-96
2021/08/23 18:34:44;;;;;;;2.80;1.70;;;;;;;;;;10259060;28;20043;-93
2021/08/23 18:39:46;;;;;;;3.78;1.70;;;;;;;;;;10230500;28;20480;-86
2021/08/23 18:44:47;;;;;;;6.47;1.50;;;;;;;;;;10251293;28;20116;-87
2021/08/23 18:49:47;;;;;;;3.28;2.00;;;;;;;;;;10252676;28;20055;-87
2021/08/23 18:54:48;;;;;;;5.43;1.98;;;;;;;;;;10254415;28;20034;-87
2021/08/23 18:59:48;;;;;;;3.88;2.05;;;;;;;;;;10250320;28;20113;-87
2021/08/23 19:04:48;;;;;;;10.00;2.13;;;;;;;;;;10246284;28;20038;-87
2021/08/23 19:09:49;;;;;;;7.25;2.30;;;;;;;;;;10248330;28;20985;-88
2021/08/23 19:14:49;;;;;;;3.07;2.10;;;;;;;;;;10252304;28;20039;-88
2021/08/23 19:19:53;;;;;;;3.78;2.65;;;;;;;;;;10248343;28;20464;-89
2021/08/23 19:24:54;;;;;;;2.22;1.70;;;;;;;;;;10222574;28;20043;-93
2021/08/23 19:29:55;;;;;;;5.87;2.23;;;;;;;;;;10228030;28;20034;-93
2021/08/23 19:34:56;;;;;;;4.15;2.53;;;;;;;;;;10240023;28;20045;-92
2021/08/23 19:39:57;;;;;;;3.67;2.75;;;;;;;;;;10295929;23;20161;-85
2021/08/23 19:44:57;;;;;;;7.22;3.00;;;;;;;;;;10331371;28;20092;-84
2021/08/23 19:49:58;;;;;;;8.07;3.17;;;;;;;;;;10341024;28;20037;-84
2021/08/23 19:54:58;;;;;;;7.93;4.43;;;;;;;;;;10364046;28;20965;-86
2021/08/23 19:59:58;;;;;;;9.15;4.43;;;;;;;;;;10387987;28;20041;-85
2021/08/23 20:04:59;;;;;;;11.43;4.70;;;;;;;;;;10389981;28;20547;-86
2021/08/23 20:09:59;;;;;;;6.73;3.87;;;;;;;;;;10386914;28;20033;-86
2021/08/23 20:15:00;;;;;;;6.80;3.97;;;;;;;;;;10389417;28;20495;-88
2021/08/23 20:20:03;;;;;;;8.67;3.73;;;;;;;;;;10386770;28;20068;-84
2021/08/23 20:25:04;;;;;;;6.07;3.33;;;;;;;;;;10387807;28;20060;-88
2021/08/23 20:30:08;;;;;;;6.30;3.10;;;;;;;;;;10371366;28;20030;-84
2021/08/23 20:35:11;;;;;;;8.93;3.00;;;;;;;;;;10390186;28;20113;-89
2021/08/23 20:40:12;;;;;;;4.88;2.78;;;;;;;;;;10346246;28;20546;-83
2021/08/23 20:45:14;;;;;;;5.38;2.90;;;;;;;;;;10341904;28;20034;-82
2021/08/23 20:50:17;;;;;;;3.67;2.50;;;;;;;;;;10306154;28;20429;-82
2021/08/23 20:55:17;;;;;;;5.40;2.90;;;;;;;;;;10320585;28;20032;-83
2021/08/23 21:00:17;;;;;;;5.30;2.73;;;;;;;;;;10337452;28;20034;-84
2021/08/23 21:05:18;;;;;;;6.10;2.88;;;;;;;;;;10340326;28;20546;-83
2021/08/23 21:10:18;;;;;;;3.47;2.60;;;;;;;;;;10338229;28;20127;-84
2021/08/23 21:15:19;;;;;;;5.67;2.67;;;;;;;;;;10334295;28;20079;-82
2021/08/23 21:20:19;;;;;;;3.40;2.60;;;;;;;;;;10328126;28;20102;-84
2021/08/23 21:25:20;;;;;;;3.58;2.42;;;;;;;;;;10338076;28;20044;-84
2021/08/23 21:30:20;;;;;;;3.90;2.60;;;;;;;;;;10338583;28;20040;-82
2021/08/23 21:35:21;;;;;;;3.03;1.93;;;;;;;;;;10338193;28;20121;-84
2021/08/23 21:40:21;;;;;;;4.80;2.35;;;;;;;;;;10345148;28;20514;-81
2021/08/23 21:45:22;;;;;;;3.38;2.33;;;;;;;;;;10369767;28;20038;-89
2021/08/23 21:50:23;;;;;;;11.90;2.40;;;;;;;;;;10383304;28;20066;-85
2021/08/23 21:55:24;;;;;;;14.02;2.42;;;;;;;;;;10376554;28;20510;-79
2021/08/23 22:00:24;;;;;;;5.88;2.10;;;;;;;;;;10377035;28;20068;-80
2021/08/23 22:05:24;;;;;;;7.60;1.97;;;;;;;;;;10382996;28;20061;-80
2021/08/23 22:10:25;;;;;;;5.00;2.17;;;;;;;;;;10376900;28;20064;-88
